• Join FlightAware (Why Join?)
  • Login
  • US Flag 
04:10PM EST


 

Airport Tracker/Info


-or-


 

Live Flight TrackerFlight Track Log ✈ KAP46 ✈ 26-Sep-2013 ✈ KMSS - KALB

Flight Track Log - Related Links

Times and Time Zones

All times are in EDT time to prevent confusion due to time zone crossing. See the KAP46 flight status page for this flight to view local times or setup timezone preferences in your user account.

Time Position Orientation Groundspeed Altitude Reporting Facility
EDT Latitude Longitude Course Direction KTS MPH feet Rate Location/Type
01:19PM 44.7372 -74.7019 160° South 150 173 5,900  Level Boston Center
01:20PM 44.6958 -74.6769 157° South 150 173 6,600 660 Climbing Boston Center
01:21PM 44.6567 -74.6608 164° South 150 173 7,300 420 Climbing Boston Center
01:22PM 44.6153 -74.6419 162° South 150 173 7,500 120 Climbing Boston Center
01:23PM 44.5678 -74.6197 162° South 166 191 7,600  Climbing Boston Center
01:24PM 44.7047 -74.7273 160° South  Level FlightAware Approximate
01:24PM 44.5183 -74.5944 160° South 177 204 7,500  Level Boston Center
01:25PM 44.4686 -74.5725 163° South 184 212 7,500  Level Boston Center
01:26PM 44.4211 -74.5503 162° South 184 212 7,500  Level Boston Center
01:27PM 44.3717 -74.5283 162° South 184 212 7,500  Level Boston Center
01:28PM 44.3261 -74.5092 163° South 184 212 7,600  Climbing Boston Center
01:29PM 44.2786 -74.4872 162° South 184 212 7,500 -60 Descending Boston Center
01:30PM 44.2353 -74.4656 160° South 179 206 7,500  Level Boston Center
01:31PM 44.1856 -74.4436 162° South 179 206 7,500  Level Boston Center
01:32PM 44.1422 -74.4247 163° South 173 199 7,500  Level Boston Center
01:33PM 44.0967 -74.4031 161° South 173 199 7,500  Level Boston Center
01:34PM 44.0492 -74.3811 162° South 173 199 7,500  Level Boston Center
01:35PM 44.0056 -74.3625 163° South 173 199 7,500  Level Boston Center
01:36PM 43.9581 -74.3408 162° South 178 205 7,500 -60 Level Boston Center
01:37PM 43.9147 -74.3219 163° South 178 205 7,400 -60 Descending Boston Center
01:38PM 43.8669 -74.3006 162° South 178 205 7,400  Level Boston Center
01:39PM 43.8236 -74.2789 160° South 178 205 7,400  Level Boston Center
01:40PM 43.7781 -74.2575 161° South 173 199 7,400  Level Boston Center
01:42PM 43.7222 -74.2328 162° South 173 199 7,500  Climbing Boston Center
01:43PM 43.6767 -74.2142 164° South 173 199 7,400 -60 Descending Boston Center
01:44PM 43.6311 -74.1956 164° South 173 199 7,400  Level Boston Center
01:45PM 43.5856 -74.1742 161° South 173 199 7,400  Level Boston Center
01:46PM 43.5297 -74.1469 161° South 173 199 7,400  Level Boston Center
01:46PM 43.4944 -74.1344 166° South 175 201 7,400  Level Boston Center
01:47PM 43.4842 -74.1283 157° South 173 199 7,400  Level Boston Center
01:47PM 43.4614 -74.1192 164° South 174 200 7,400  Level Boston Center
01:48PM 43.4364 -74.1069 160° South 173 199 7,400  Level Boston Center
01:48PM 43.4117 -74.0950 161° South 174 200 7,400  Level Boston Center
01:49PM 43.3889 -74.0858 164° South 173 199 7,400  Level Boston Center
01:49PM 43.3681 -74.0794 167° South 177 204 7,400 180 Level Boston Center
01:50PM 43.3392 -74.0617 156° South 179 206 7,600 120 Climbing Boston Center
01:50PM 43.3331 -74.0614 178° South 173 199 7,500 -420 Descending Boston Center
01:51PM 43.2958 -74.0433 161° South 184 212 7,200 -480 Descending Boston Center
01:51PM 43.2647 -74.0283 161° South 187 215 6,900 -360 Descending Boston Center
01:52PM 43.2419 -74.0192 164° South 184 212 6,900 -300 Level Boston Center
01:52PM 43.2128 -74.0069 163° South 191 220 6,600 -420 Descending Boston Center
01:53PM 43.1964 -74.0008 165° South 184 212 6,500 -600 Descending Boston Center
01:53PM 43.1589 -73.9856 163° South 194 223 6,000 -540 Descending Boston Center
01:54PM 43.1381 -73.9850 179° South 189 217 6,000 -420 Level Boston Center
01:54PM 43.1047 -73.9869 182° South 200 230 5,600 -360 Descending Boston Center
01:55PM 43.0964 -73.9842 166° South 194 223 5,700 -480 Climbing Boston Center
01:55PM 43.0528 -73.9831 179° South 196 226 5,200 -420 Descending Boston Center
01:56PM 43.0464 -73.9828 178° South 194 223 5,300 -420 Climbing Boston Center
01:56PM 43.0006 -73.9789 176° South 193 222 4,800 -540 Descending Boston Center
01:57PM 42.9842 -73.9728 165° South 194 223 4,800 -300 Level Boston Center
01:57PM 42.9444 -73.9661 173° South 188 216 4,500 -420 Descending Boston Center
01:58PM 42.9258 -73.9542 155° Southeast 194 223 4,400 -540 Descending Boston Center
01:58PM 42.8947 -73.9450 168° South 188 216 4,000 -540 Descending Boston Center
01:59PM 42.8825 -73.9361 152° Southeast 194 223 3,900 -420 Descending Boston Center
01:59PM 42.8408 -73.9239 168° South 186 214 3,600 -540 Descending Boston Center
02:00PM 42.8286 -73.9178 160° South 189 217 3,400 -660 Descending Boston Center
02:01PM 42.7933 -73.9000 160° South 187 215 2,900 4,080 Descending Boston Center
02:01PM 42.7789 -73.8942 163° South 184 212 7,500 -840 Climbing Boston Center
02:02PM 42.7353 -73.8733 161° South 190 219 2,000  Descending Boston Center
02:02PM 42.7311 -73.8731 177° South 184 212 7,500 -840 Climbing Boston Center
02:03PM 42.7086 -73.8386 132° Southeast 151 174 1,300  Descending Boston Center
02:03PM 42.6792 -73.8522 199° South 184 212 7,500 -720 Climbing Boston Center
02:04PM 42.7256 -73.8053 37° Northeast 112 129 600 -9,000 Descending Boston Center
02:06PM 42.7333 -73.8000 170° South  Level FlightAware Approximate
02:13PM 42.7491 -73.8020 170° South  Level Estimated
02:14PM 42.7491 -73.8020 170° South  Level Estimated